Luna, New Mexico
Current Conditions -  °F | °C
As of 6:35 PM on Tuesday 25 Nov 2014 (Local Time) from KJTC Reporting Station
Clear Clear  
Wind Chill: -8°   Ceiling: Unl
Heat Index: -3°   Visibility: 10mi
Dew Point: -19°   Wind: 9mph
Humidity: 29%   Direction: 200°SSW
Pressure: 30.41"   Gusts: NA
Location:  33.82°N, 108.95°W
Report Text: KJTC 260135Z AUTO 20008KT 10SM CLR M03/M19 A3041 RMK AO2
Loading
Personal Weather Stations






























Interactive Weather Map New forecast layout! Learn more

10-Day Weather Forecast

Advertisements
Track Severe Weather on mobile